Weather at Bolzano Airport

Public forecast

Using degrees Celsius for public forecast. Weather courtesy of forecast.io.

Current aviation weather report (METAR) for Bolzano Airport

Retrieved 2021/06/21 08:50 UTC (56 minutes ago):

LIPB 210850Z 15005KT 110V200 9999 FEW090 29/16 Q1009 RMK MON LIB

Aviation forecast (TAF) for Bolzano Airport

Retrieved 2021/06/21 06:21 UTC (3 hours ago):

TAF TAF LIPB 210500Z 2106/2206 VRB05KT 9999 SCT050 BECMG 2110/2112 19011KT BECMG 2116/2118 VRB05KT